createdAt,value
2022-11-16T00:02:07.770Z,12.60
2022-11-16T00:04:34.310Z,12.77
2022-11-16T00:07:02.705Z,12.15
2022-11-16T00:09:31.855Z,9.23
2022-11-16T00:12:06.590Z,13.95
2022-11-16T00:14:35.237Z,11.68
2022-11-16T00:17:02.170Z,11.88
2022-11-16T00:19:29.136Z,11.75
2022-11-16T00:21:56.167Z,10.05
2022-11-16T00:24:23.535Z,9.30
2022-11-16T00:26:51.314Z,10.70
2022-11-16T00:29:23.561Z,10.85
2022-11-16T00:31:51.142Z,10.02
2022-11-16T00:34:18.331Z,10.48
2022-11-16T00:36:45.460Z,11.60
2022-11-16T00:39:14.298Z,12.18
2022-11-16T00:41:41.626Z,12.63
2022-11-16T00:44:08.597Z,11.55
2022-11-16T00:46:35.290Z,12.25
2022-11-16T00:49:01.675Z,11.20
2022-11-16T00:51:28.028Z,12.57
2022-11-16T00:53:54.957Z,11.00
2022-11-16T00:56:21.303Z,10.93
2022-11-16T00:58:47.679Z,10.02
2022-11-16T01:01:14.925Z,12.73
2022-11-16T01:03:41.397Z,10.70
2022-11-16T01:06:10.368Z,9.98
2022-11-16T01:08:38.560Z,12.15
2022-11-16T01:11:24.038Z,15.70
2022-11-16T01:13:51.321Z,9.95
2022-11-16T01:16:19.789Z,9.85
2022-11-16T01:18:50.851Z,11.80
2022-11-16T01:21:18.333Z,12.90
2022-11-16T01:23:44.981Z,14.38
2022-11-16T01:26:11.376Z,11.60
2022-11-16T01:28:38.046Z,10.10
2022-11-16T01:31:04.577Z,10.02
2022-11-16T01:33:31.058Z,11.90
2022-11-16T01:35:57.784Z,10.27
2022-11-16T01:38:29.364Z,11.85
2022-11-16T01:40:56.199Z,9.55
2022-11-16T01:43:25.204Z,9.45
2022-11-16T01:45:52.231Z,9.15
2022-11-16T01:48:28.030Z,8.30
2022-11-16T01:50:56.194Z,9.05
2022-11-16T01:53:23.279Z,12.02
2022-11-16T01:55:50.167Z,10.23
2022-11-16T01:58:22.933Z,9.95
2022-11-16T02:00:49.802Z,9.07
2022-11-16T02:03:18.621Z,10.00
2022-11-16T02:06:01.207Z,11.50
2022-11-16T02:09:06.908Z,12.90
2022-11-16T02:11:36.506Z,8.80
2022-11-16T02:14:17.919Z,14.13
2022-11-16T02:17:01.979Z,11.10
2022-11-16T02:20:10.309Z,8.63
2022-11-16T02:22:54.934Z,11.80
2022-11-16T02:25:46.073Z,11.70
2022-11-16T02:28:34.594Z,9.10
2022-11-16T02:31:05.802Z,11.02
2022-11-16T02:33:37.805Z,9.80
2022-11-16T02:36:09.242Z,11.80
2022-11-16T02:38:40.803Z,10.15
2022-11-16T02:41:14.509Z,9.73
2022-11-16T02:43:48.249Z,12.02
2022-11-16T02:46:38.787Z,13.45
2022-11-16T02:49:11.482Z,11.30
2022-11-16T02:51:40.385Z,10.10
2022-11-16T02:54:14.783Z,11.65
2022-11-16T02:57:13.973Z,10.93
2022-11-16T02:59:44.695Z,10.50
2022-11-16T03:02:26.576Z,9.38
2022-11-16T03:05:31.929Z,9.88
2022-11-16T03:08:09.222Z,9.77
2022-11-16T03:10:58.522Z,11.85
2022-11-16T03:13:30.448Z,10.75
2022-11-16T03:15:57.856Z,12.18
2022-11-16T03:18:28.934Z,10.60
2022-11-16T03:21:05.910Z,9.77
2022-11-16T03:23:32.434Z,11.45
2022-11-16T03:26:05.173Z,11.57
2022-11-16T03:28:39.303Z,10.32
2022-11-16T03:31:15.075Z,10.70
2022-11-16T03:33:48.555Z,8.20
2022-11-16T03:36:42.577Z,8.45
2022-11-16T03:39:17.111Z,8.38
2022-11-16T03:41:46.149Z,7.88
2022-11-16T03:44:14.279Z,8.52
2022-11-16T03:46:45.842Z,8.40
2022-11-16T03:49:12.367Z,11.18
2022-11-16T03:51:38.778Z,9.32
2022-11-16T03:54:05.870Z,8.07
2022-11-16T03:56:32.342Z,9.73
2022-11-16T03:58:58.707Z,10.52
2022-11-16T04:01:25.463Z,8.80
2022-11-16T04:03:51.797Z,9.73
2022-11-16T04:06:37.397Z,8.38
2022-11-16T04:09:22.470Z,8.60
2022-11-16T04:12:08.250Z,10.05
2022-11-16T04:14:53.365Z,10.02
2022-11-16T04:17:42.602Z,8.63
2022-11-16T04:20:29.873Z,10.48
2022-11-16T04:23:30.111Z,10.88
2022-11-16T04:25:57.305Z,9.05
2022-11-16T04:28:31.331Z,9.73
2022-11-16T04:31:19.737Z,10.32
2022-11-16T04:34:05.091Z,9.35
2022-11-16T04:36:50.278Z,10.77
2022-11-16T04:42:01.706Z,8.00
2022-11-16T04:47:17.333Z,7.55
2022-11-16T04:49:43.724Z,8.45
2022-11-16T04:52:10.349Z,8.70
2022-11-16T04:54:37.286Z,9.70
2022-11-16T04:57:03.662Z,9.13
2022-11-16T04:59:29.966Z,9.90
2022-11-16T05:02:08.737Z,9.95
2022-11-16T05:04:40.960Z,10.30
2022-11-16T05:07:10.910Z,10.95
2022-11-16T05:09:43.321Z,8.65
2022-11-16T05:12:11.287Z,11.77
2022-11-16T05:14:37.609Z,10.32
2022-11-16T05:17:04.475Z,8.95
2022-11-16T05:19:49.408Z,10.15
2022-11-16T05:22:15.794Z,10.35
2022-11-16T05:24:42.142Z,10.75
2022-11-16T05:27:12.770Z,10.82
2022-11-16T05:29:41.054Z,13.40
2022-11-16T05:32:08.123Z,10.40
2022-11-16T05:34:34.561Z,10.68
2022-11-16T05:37:00.966Z,11.75
2022-11-16T05:39:28.007Z,14.45
2022-11-16T05:41:54.686Z,12.70
2022-11-16T05:44:21.056Z,12.40
2022-11-16T05:46:48.061Z,10.85
2022-11-16T05:49:15.097Z,13.35
2022-11-16T05:51:43.762Z,13.10
2022-11-16T05:54:16.335Z,13.48
2022-11-16T05:56:42.902Z,10.38
2022-11-16T05:59:15.195Z,12.07
2022-11-16T06:01:43.143Z,9.70
2022-11-16T06:04:09.912Z,14.07
2022-11-16T06:06:36.525Z,10.73
2022-11-16T06:09:03.663Z,15.48
2022-11-16T06:11:35.501Z,11.60
2022-11-16T06:14:02.525Z,13.82
2022-11-16T06:16:29.367Z,13.35
2022-11-16T06:18:55.719Z,11.18
2022-11-16T06:21:22.071Z,15.20
2022-11-16T06:23:48.951Z,12.90
2022-11-16T06:26:15.334Z,12.35
2022-11-16T06:28:41.662Z,14.80
2022-11-16T06:31:08.351Z,13.30
2022-11-16T06:33:34.735Z,15.85
2022-11-16T06:36:01.073Z,13.13
2022-11-16T06:38:28.280Z,16.45
2022-11-16T06:40:57.672Z,12.52
2022-11-16T06:43:25.706Z,11.15
2022-11-16T06:45:57.648Z,16.65
2022-11-16T06:48:24.021Z,13.50
2022-11-16T06:50:52.524Z,18.88
2022-11-16T06:53:22.461Z,18.67
2022-11-16T06:55:53.070Z,15.50
2022-11-16T06:58:19.434Z,16.23
2022-11-16T07:00:45.756Z,18.83
2022-11-16T07:03:12.534Z,19.92
2022-11-16T07:05:41.745Z,16.80
2022-11-16T07:08:08.460Z,21.15
2022-11-16T07:10:35.345Z,18.17
2022-11-16T07:13:03.330Z,20.38
2022-11-16T07:15:30.033Z,23.70
2022-11-16T07:17:56.895Z,20.67
2022-11-16T07:20:23.915Z,23.48
2022-11-16T07:22:50.758Z,21.48
2022-11-16T07:25:17.073Z,24.92
2022-11-16T07:27:43.421Z,24.13
2022-11-16T07:30:10.215Z,20.90
2022-11-16T07:32:39.683Z,21.25
2022-11-16T07:35:06.942Z,20.58
2022-11-16T07:37:33.334Z,22.77
2022-11-16T07:39:59.652Z,20.23
2022-11-16T07:42:26.642Z,20.10
2022-11-16T07:44:53.037Z,20.25
2022-11-16T07:47:19.348Z,18.98
2022-11-16T07:49:45.677Z,16.15
2022-11-16T07:52:12.024Z,18.00
2022-11-16T07:54:38.433Z,17.58
2022-11-16T07:57:05.138Z,16.75
2022-11-16T07:59:31.488Z,18.88
2022-11-16T08:01:59.261Z,16.92
2022-11-16T08:04:26.180Z,17.23
2022-11-16T08:06:52.677Z,16.05
2022-11-16T08:09:19.455Z,16.65
2022-11-16T08:11:47.018Z,14.20
2022-11-16T08:14:13.853Z,15.60
2022-11-16T08:16:40.800Z,18.38
2022-11-16T08:19:07.114Z,13.43
2022-11-16T08:21:33.511Z,14.07
2022-11-16T08:23:59.894Z,15.80
2022-11-16T08:26:27.442Z,15.70
2022-11-16T08:28:55.561Z,14.27
2022-11-16T08:31:25.439Z,15.90
2022-11-16T08:33:52.863Z,14.75
2022-11-16T08:36:19.634Z,13.13
2022-11-16T08:38:47.537Z,13.13
2022-11-16T08:41:14.843Z,15.27
2022-11-16T08:43:42.801Z,14.00
2022-11-16T08:46:10.573Z,13.25
2022-11-16T08:48:38.130Z,13.32
2022-11-16T08:51:22.542Z,13.40
2022-11-16T08:53:49.945Z,12.95
2022-11-16T08:56:17.913Z,13.43
2022-11-16T08:58:46.653Z,12.20
2022-11-16T09:01:18.617Z,15.93
2022-11-16T09:03:46.563Z,11.57
2022-11-16T09:06:13.720Z,13.05
2022-11-16T09:08:42.574Z,11.63
2022-11-16T09:11:18.037Z,11.25
2022-11-16T09:13:46.025Z,12.00
2022-11-16T09:16:15.710Z,11.10
2022-11-16T09:18:48.649Z,11.30
2022-11-16T09:21:22.377Z,11.50
2022-11-16T09:23:49.856Z,12.23
2022-11-16T09:26:22.833Z,12.43
2022-11-16T09:29:07.745Z,10.45
2022-11-16T09:31:34.698Z,10.07
2022-11-16T09:34:01.393Z,10.98
2022-11-16T09:36:28.871Z,10.88
2022-11-16T09:39:23.645Z,11.65
2022-11-16T09:42:02.001Z,11.63
2022-11-16T09:45:14.638Z,9.82
2022-11-16T09:47:49.386Z,8.02
2022-11-16T09:50:28.853Z,8.00
2022-11-16T09:52:58.014Z,8.77
2022-11-16T09:55:49.617Z,9.38
2022-11-16T09:58:23.560Z,7.80
2022-11-16T10:00:57.186Z,8.15
2022-11-16T10:03:25.622Z,7.32
2022-11-16T10:06:01.362Z,7.93
2022-11-16T10:08:46.454Z,5.50
2022-11-16T10:14:06.111Z,7.20
2022-11-16T10:17:24.832Z,4.20
2022-11-16T10:20:18.516Z,3.15
2022-11-16T10:23:18.860Z,1.70
2022-11-16T10:25:52.253Z,1.33
2022-11-16T10:29:01.050Z,1.48
2022-11-16T10:31:30.916Z,1.83
2022-11-16T10:33:59.332Z,1.88
2022-11-16T10:36:32.455Z,2.05
2022-11-16T10:39:00.635Z,1.25
2022-11-16T10:41:37.791Z,0.95
2022-11-16T10:44:24.624Z,1.65
2022-11-16T10:47:05.029Z,0.85
2022-11-16T10:49:58.296Z,1.48
2022-11-16T10:52:26.203Z,1.48
2022-11-16T10:54:53.339Z,3.25
2022-11-16T10:57:20.960Z,0.98
2022-11-16T10:59:54.215Z,1.55
2022-11-16T11:02:27.637Z,3.65
2022-11-16T11:05:17.804Z,1.35
2022-11-16T11:07:56.818Z,1.33
2022-11-16T11:10:28.910Z,2.13
2022-11-16T11:13:11.933Z,0.85
2022-11-16T11:15:40.814Z,1.30
2022-11-16T11:18:27.319Z,1.00
2022-11-16T11:21:13.651Z,1.65
2022-11-16T11:23:52.737Z,2.03
2022-11-16T11:26:36.502Z,3.92
2022-11-16T11:29:23.550Z,3.70
2022-11-16T11:31:56.039Z,0.70
2022-11-16T11:34:26.662Z,3.03
2022-11-16T11:37:02.798Z,1.90
2022-11-16T11:39:35.325Z,1.17
2022-11-16T11:42:22.970Z,6.25
2022-11-16T11:44:57.394Z,1.05
2022-11-16T11:50:33.254Z,2.80
2022-11-16T11:53:07.715Z,3.58
2022-11-16T11:55:34.945Z,1.67
2022-11-16T11:58:03.571Z,2.17
2022-11-16T12:00:44.281Z,0.82
2022-11-16T12:03:44.165Z,1.40
2022-11-16T12:06:19.854Z,1.45
2022-11-16T12:09:07.414Z,1.52
2022-11-16T12:11:41.404Z,1.10
2022-11-16T12:14:49.387Z,2.10
2022-11-16T12:17:16.060Z,2.92
2022-11-16T12:19:45.358Z,3.05
2022-11-16T12:22:31.763Z,2.47
2022-11-16T12:25:16.897Z,2.58
2022-11-16T12:27:59.022Z,1.17
2022-11-16T12:30:26.045Z,8.20
2022-11-16T12:33:26.349Z,4.10
2022-11-16T12:36:08.210Z,2.47
2022-11-16T12:38:49.159Z,3.45
2022-11-16T12:41:45.546Z,1.25
2022-11-16T12:44:17.133Z,1.05
2022-11-16T12:47:23.094Z,2.80
2022-11-16T12:50:01.270Z,1.55
2022-11-16T12:52:49.235Z,2.95
2022-11-16T12:55:52.679Z,1.73
2022-11-16T12:58:23.265Z,3.35
2022-11-16T13:00:57.267Z,3.03
2022-11-16T13:03:40.785Z,3.33
2022-11-16T13:06:12.779Z,3.05
2022-11-16T13:08:54.269Z,1.50
2022-11-16T13:11:32.841Z,4.45
2022-11-16T13:14:03.960Z,2.35
2022-11-16T13:16:31.009Z,4.68
2022-11-16T13:18:59.821Z,5.18
2022-11-16T13:21:44.499Z,2.67
2022-11-16T13:24:27.551Z,5.15
2022-11-16T13:27:17.902Z,5.32
2022-11-16T13:29:57.475Z,4.70
2022-11-16T13:32:43.384Z,3.88
2022-11-16T13:35:18.017Z,3.47
2022-11-16T13:37:49.077Z,4.00
2022-11-16T13:40:33.325Z,8.38
2022-11-16T13:43:11.845Z,2.30
2022-11-16T13:45:50.748Z,3.08
2022-11-16T13:48:26.874Z,3.50
2022-11-16T13:50:56.702Z,3.08
2022-11-16T13:56:16.113Z,3.05
2022-11-16T13:59:00.774Z,4.78
2022-11-16T14:01:58.272Z,1.65
2022-11-16T14:04:39.899Z,2.20
2022-11-16T14:07:29.300Z,5.65
2022-11-16T14:09:55.850Z,3.22
2022-11-16T14:12:37.794Z,4.18
2022-11-16T14:15:25.691Z,7.43
2022-11-16T14:17:58.205Z,4.45
2022-11-16T14:20:34.397Z,3.17
2022-11-16T14:23:32.181Z,5.70
2022-11-16T14:26:13.750Z,4.57
2022-11-16T14:29:12.752Z,3.90
2022-11-16T14:32:18.861Z,3.92
2022-11-16T14:34:48.087Z,3.15
2022-11-16T14:37:24.348Z,2.03
2022-11-16T14:39:53.537Z,2.95
2022-11-16T14:42:23.942Z,4.10
2022-11-16T14:44:58.330Z,6.60
2022-11-16T14:47:26.942Z,2.75
2022-11-16T14:49:56.336Z,2.10
2022-11-16T14:52:35.959Z,3.03
2022-11-16T14:55:07.170Z,3.47
2022-11-16T14:57:33.813Z,4.35
2022-11-16T15:00:21.302Z,3.10
2022-11-16T15:02:57.606Z,3.30
2022-11-16T15:05:33.249Z,4.30
2022-11-16T15:08:01.295Z,4.68
2022-11-16T15:10:29.077Z,2.90
2022-11-16T15:12:56.970Z,5.97
2022-11-16T15:15:26.722Z,2.92
2022-11-16T15:18:07.827Z,4.68
2022-11-16T15:20:37.969Z,5.18
2022-11-16T15:23:05.874Z,2.95
2022-11-16T15:25:40.913Z,2.58
2022-11-16T15:28:30.550Z,6.40
2022-11-16T15:30:59.960Z,3.80
2022-11-16T15:33:29.321Z,5.82
2022-11-16T15:35:56.346Z,5.15
2022-11-16T15:38:29.333Z,6.35
2022-11-16T15:41:00.700Z,3.90
2022-11-16T15:43:38.183Z,6.80
2022-11-16T15:46:13.811Z,4.73
2022-11-16T15:48:41.167Z,5.13
2022-11-16T15:51:15.113Z,3.08
2022-11-16T15:53:45.949Z,4.23
2022-11-16T15:56:14.742Z,4.18
2022-11-16T15:58:42.596Z,6.47
2022-11-16T16:01:11.360Z,2.90
2022-11-16T16:03:38.467Z,3.05
2022-11-16T16:06:06.000Z,5.20
2022-11-16T16:08:35.650Z,4.93
2022-11-16T16:11:25.475Z,6.43
2022-11-16T16:13:59.372Z,4.57
2022-11-16T16:16:33.051Z,5.30
2022-11-16T16:19:05.145Z,4.88
2022-11-16T16:21:46.579Z,5.22
2022-11-16T16:24:49.817Z,3.75
2022-11-16T16:27:27.724Z,3.80
2022-11-16T16:29:58.850Z,6.22
2022-11-16T16:32:26.578Z,2.50
2022-11-16T16:34:55.414Z,2.55
2022-11-16T16:37:22.533Z,3.10
2022-11-16T16:39:48.935Z,4.88
2022-11-16T16:42:17.399Z,4.13
2022-11-16T16:44:45.702Z,2.70
2022-11-16T16:47:13.530Z,4.32
2022-11-16T16:49:40.049Z,3.10
2022-11-16T16:52:07.033Z,3.45
2022-11-16T16:54:34.194Z,3.97
2022-11-16T16:57:02.274Z,3.47
2022-11-16T16:59:30.447Z,2.60
2022-11-16T17:01:58.473Z,3.03
2022-11-16T17:04:25.065Z,3.30
2022-11-16T17:06:53.682Z,2.25
2022-11-16T17:09:20.555Z,1.98
2022-11-16T17:11:47.640Z,2.28
2022-11-16T17:14:14.489Z,1.92
2022-11-16T17:16:40.965Z,2.03
2022-11-16T17:19:07.696Z,1.30
2022-11-16T17:21:34.428Z,2.25
2022-11-16T17:24:01.368Z,3.45
2022-11-16T17:26:29.313Z,3.00
2022-11-16T17:28:56.924Z,2.08
2022-11-16T17:31:25.492Z,3.35
2022-11-16T17:33:52.514Z,5.65
2022-11-16T17:36:19.394Z,5.00
2022-11-16T17:38:46.261Z,3.72
2022-11-16T17:41:17.902Z,2.55
2022-11-16T17:43:46.480Z,2.97
2022-11-16T17:46:15.555Z,3.42
2022-11-16T17:48:43.538Z,2.78
2022-11-16T17:51:15.902Z,4.20
2022-11-16T17:53:44.288Z,2.70
2022-11-16T17:56:15.098Z,3.67
2022-11-16T17:58:41.726Z,3.15
2022-11-16T18:01:08.293Z,5.05
2022-11-16T18:03:39.209Z,2.55
2022-11-16T18:06:13.123Z,1.75
2022-11-16T18:08:41.318Z,2.95
2022-11-16T18:11:16.428Z,2.72
2022-11-16T18:13:44.034Z,3.15
2022-11-16T18:16:18.181Z,3.63
2022-11-16T18:18:45.917Z,5.72
2022-11-16T18:21:20.067Z,2.20
2022-11-16T18:26:18.626Z,2.03
2022-11-16T18:28:45.411Z,6.13
2022-11-16T18:31:16.341Z,4.53
2022-11-16T18:33:43.684Z,5.15
2022-11-16T18:36:12.027Z,4.85
2022-11-16T18:38:39.216Z,2.15
2022-11-16T18:41:11.406Z,2.38
2022-11-16T18:43:56.410Z,2.33
2022-11-16T18:46:25.562Z,1.92
2022-11-16T18:48:52.488Z,2.65
2022-11-16T18:51:21.007Z,2.28
2022-11-16T18:53:47.684Z,1.92
2022-11-16T18:56:14.788Z,3.97
2022-11-16T18:58:50.229Z,4.13
2022-11-16T19:01:18.990Z,4.57
2022-11-16T19:03:46.131Z,7.68
2022-11-16T19:06:13.085Z,6.05
2022-11-16T19:08:41.222Z,3.92
2022-11-16T19:11:13.070Z,6.10
2022-11-16T19:13:41.122Z,5.57
2022-11-16T19:16:09.243Z,4.47
2022-11-16T19:18:36.868Z,6.43
2022-11-16T19:21:09.129Z,3.58
2022-11-16T19:23:40.874Z,4.43
2022-11-16T19:26:07.463Z,4.43
2022-11-16T19:28:38.396Z,4.60
2022-11-16T19:31:15.681Z,6.05
2022-11-16T19:33:43.132Z,9.40
2022-11-16T19:36:10.908Z,6.70
2022-11-16T19:38:38.550Z,7.30
2022-11-16T19:41:06.043Z,11.38
2022-11-16T19:43:33.585Z,11.40
2022-11-16T19:46:05.707Z,10.20
2022-11-16T19:48:33.117Z,5.90
2022-11-16T19:51:08.149Z,5.57
2022-11-16T19:53:35.976Z,4.57
2022-11-16T19:56:03.648Z,4.82
2022-11-16T19:58:30.915Z,3.42
2022-11-16T20:01:06.283Z,5.50
2022-11-16T20:03:33.275Z,4.65
2022-11-16T20:06:05.347Z,4.88
2022-11-16T20:08:32.313Z,5.28
2022-11-16T20:10:58.688Z,6.97
2022-11-16T20:13:25.017Z,5.88
2022-11-16T20:15:51.947Z,5.03
2022-11-16T20:18:18.301Z,7.68
2022-11-16T20:20:44.615Z,7.25
2022-11-16T20:23:15.095Z,5.20
2022-11-16T20:25:41.507Z,3.72
2022-11-16T20:28:07.819Z,11.10
2022-11-16T20:30:34.514Z,5.10
2022-11-16T20:33:00.828Z,4.38
2022-11-16T20:35:27.141Z,13.32
2022-11-16T20:37:54.001Z,28.67
2022-11-16T20:40:20.309Z,34.83
2022-11-16T20:42:46.923Z,12.25
2022-11-16T20:45:13.673Z,14.10
2022-11-16T20:47:39.984Z,6.28
2022-11-16T20:50:06.874Z,5.05
2022-11-16T20:52:33.669Z,4.82
2022-11-16T20:55:00.625Z,6.60
2022-11-16T20:57:27.397Z,6.70
2022-11-16T20:59:53.698Z,3.42
2022-11-16T21:02:20.034Z,3.67
2022-11-16T21:04:46.894Z,4.88
2022-11-16T21:07:13.979Z,4.82
2022-11-16T21:09:59.209Z,5.45
2022-11-16T21:12:43.941Z,5.07
2022-11-16T21:15:11.035Z,6.18
2022-11-16T21:17:37.350Z,5.68
2022-11-16T21:20:26.352Z,5.78
2022-11-16T21:22:50.778Z,6.00
2022-11-16T21:25:17.094Z,6.72
2022-11-16T21:27:43.445Z,4.63
2022-11-16T21:30:10.295Z,4.35
2022-11-16T21:32:36.606Z,3.80
2022-11-16T21:35:03.012Z,3.00
2022-11-16T21:37:30.178Z,3.92
2022-11-16T21:39:56.493Z,3.60
2022-11-16T21:42:22.863Z,2.58
2022-11-16T21:44:49.813Z,2.72
2022-11-16T21:47:20.437Z,4.75
2022-11-16T21:50:08.677Z,4.47
2022-11-16T21:52:34.519Z,2.40
2022-11-16T21:55:00.830Z,3.67
2022-11-16T21:57:27.369Z,3.40
2022-11-16T21:59:54.193Z,3.05
2022-11-16T22:02:20.511Z,4.28
2022-11-16T22:05:05.249Z,4.20
2022-11-16T22:07:36.542Z,4.25
2022-11-16T22:10:08.961Z,4.18
2022-11-16T22:12:35.705Z,3.97
2022-11-16T22:15:03.693Z,3.08
2022-11-16T22:17:30.452Z,4.47
2022-11-16T22:19:56.892Z,5.28
2022-11-16T22:22:23.779Z,4.53
2022-11-16T22:24:50.750Z,3.80
2022-11-16T22:27:18.282Z,3.28
2022-11-16T22:29:44.617Z,8.00
2022-11-16T22:32:11.594Z,5.60
2022-11-16T22:34:37.978Z,4.68
2022-11-16T22:37:04.343Z,5.15
2022-11-16T22:39:30.873Z,4.55
2022-11-16T22:41:57.274Z,4.88
2022-11-16T22:44:23.601Z,4.85
2022-11-16T22:46:49.937Z,4.90
2022-11-16T22:49:16.470Z,5.95
2022-11-16T22:51:42.854Z,5.28
2022-11-16T22:54:11.290Z,4.82
2022-11-16T22:56:38.201Z,5.95
2022-11-16T22:59:05.683Z,4.50
2022-11-16T23:01:32.778Z,6.28
2022-11-16T23:03:59.616Z,3.78
2022-11-16T23:06:26.005Z,5.07
2022-11-16T23:08:52.596Z,4.90
2022-11-16T23:11:40.545Z,5.85
2022-11-16T23:14:28.694Z,4.40
2022-11-16T23:16:55.525Z,4.57
2022-11-16T23:19:40.925Z,3.95
2022-11-16T23:25:12.134Z,2.95
2022-11-16T23:27:44.018Z,3.70
2022-11-16T23:30:13.093Z,3.83
2022-11-16T23:32:40.504Z,4.75
2022-11-16T23:35:07.957Z,4.38
2022-11-16T23:37:34.309Z,5.25
2022-11-16T23:40:00.735Z,4.65
2022-11-16T23:42:45.841Z,8.02
2022-11-16T23:45:12.141Z,6.07
2022-11-16T23:47:38.458Z,6.15
2022-11-16T23:50:05.782Z,7.75
2022-11-16T23:52:32.093Z,5.82
2022-11-16T23:54:58.399Z,6.32
2022-11-16T23:57:25.169Z,5.55
2022-11-16T23:59:51.854Z,6.75
